Terminal Aerodrome Forecast
Issued by NWS Cleveland, OH

Home | Current Version | Previous Version | Text Only | Print | Product List | Glossary On
Versions: 1 2 3 4 5 6 7 8 9 10 11 12 13 14 15 16 17 18 19 20 21
000
FTUS41 KCLE 021728
TAFCAK
TAF
KCAK 021728Z 0218/0318 26010G20KT P6SM SCT025 OVC035
      TEMPO 0218/0222 OVC025
     FM030300 28009KT P6SM OVC025
     FM030700 29006KT 6SM HZ OVC015
     FM031200 28007KT 4SM HZ OVC015
     FM031600 28008KT P6SM OVC015=

USA.gov is the U.S. government's official web portal to all federal, state and local government web resources and services.